Terminal Aerodrome Forecast
Issued by NWS Paducah, KY

Home | Current Version | Previous Version | Text Only | Print | Product List | Glossary On
Versions: 1 2 3 4 5 6 7 8 9 10 11 12 13 14
653
FTUS43 KPAH 260520
TAFPAH
TAF
KPAH 260520Z 2606/2706 35003KT P6SM BKN120
     FM261400 VRB04KT P6SM BKN150
     FM270200 00000KT P6SM FEW080 BKN150=

USA.gov is the U.S. government's official web portal to all federal, state and local government web resources and services.